Time;durP1;ratioP1;P1;durP2;ratioP2;P2;SDS_P1;SDS_P2;PMS_P1;PMS_P2;Temp;Humidity;BMP_temperature;BMP_pressure;BME280_temperature;BME280_humidity;BME280_pressure;Samples;Min_cycle;Max_cycle;Signal;HPM_P1;HPM_P2
2022/10/24 00:00:59;;;;;;;8.20;2.47;;;16.90;78.60;;;;;;5054098;28;20756;-87
2022/10/24 00:03:42;;;;;;;7.70;2.10;;;16.90;78.60;;;;;;5044993;28;20280;-87
2022/10/24 00:06:10;;;;;;;7.05;2.53;;;16.90;78.60;;;;;;5045988;28;20230;-88
2022/10/24 00:08:53;;;;;;;5.18;2.13;;;16.90;78.60;;;;;;5054046;28;20205;-88
2022/10/24 00:11:23;;;;;;;10.10;2.28;;;16.90;78.60;;;;;;5053641;28;20198;-88
2022/10/24 00:13:59;;;;;;;3.72;1.80;;;17.00;77.60;;;;;;5062329;28;20665;-88
2022/10/24 00:16:41;;;;;;;8.80;2.03;;;17.20;76.00;;;;;;5046634;28;20197;-87
2022/10/24 00:19:18;;;;;;;8.02;2.03;;;17.10;78.20;;;;;;5043081;28;20213;-87
2022/10/24 00:21:46;;;;;;;8.05;2.10;;;17.10;78.00;;;;;;5042767;28;20281;-88
2022/10/24 00:24:29;;;;;;;5.15;1.65;;;17.00;78.70;;;;;;5050911;28;20280;-87
2022/10/24 00:26:56;;;;;;;5.13;1.83;;;16.90;78.60;;;;;;5046558;28;20308;-88
2022/10/24 00:29:23;;;;;;;6.30;1.92;;;16.90;78.60;;;;;;5053536;28;20288;-88
2022/10/24 00:31:59;;;;;;;4.97;1.83;;;16.90;78.60;;;;;;5053232;28;20297;-87
2022/10/24 00:34:27;;;;;;;3.63;1.95;;;16.80;79.70;;;;;;5049498;28;20280;-88
2022/10/24 00:37:05;;;;;;;7.70;2.20;;;16.80;80.00;;;;;;5054436;28;20285;-87
2022/10/24 00:39:47;;;;;;;6.43;2.15;;;16.80;82.10;;;;;;5054060;28;20632;-88
2022/10/24 00:42:17;;;;;;;8.23;2.17;;;16.60;88.70;;;;;;5055597;28;20712;-88
2022/10/24 00:51:33;;;;;;;9.73;2.40;;;15.90;94.90;;;;;;5041783;28;20204;-88
2022/10/24 00:58:00;;;;;;;5.82;2.03;;;15.50;97.00;;;;;;5061510;28;20254;-88
2022/10/24 01:00:31;;;;;;;8.57;2.15;;;15.30;98.30;;;;;;5045988;28;20595;-88
2022/10/24 01:02:58;;;;;;;6.50;2.10;;;15.20;99.30;;;;;;5053614;28;20281;-89
2022/10/24 01:05:36;;;;;;;3.72;2.03;;;15.20;99.90;;;;;;5053271;28;20756;-88
2022/10/24 01:08:24;;;;;;;7.03;2.53;;;15.10;99.90;;;;;;5051482;28;20300;-88
2022/10/24 01:14:34;;;;;;;4.68;2.00;;;15.10;99.90;;;;;;5049178;28;20277;-89
2022/10/24 01:17:13;;;;;;;8.60;2.28;;;15.10;99.90;;;;;;5041698;28;20206;-88
2022/10/24 01:20:16;;;;;;;4.78;2.10;;;15.00;99.90;;;;;;5051233;28;20276;-88
2022/10/24 01:23:09;;;;;;;7.45;2.53;;;15.00;99.90;;;;;;5051533;28;20196;-88
2022/10/24 01:25:53;;;;;;;9.65;2.60;;;15.00;99.90;;;;;;5048805;28;20289;-89
2022/10/24 01:28:24;;;;;;;6.28;2.58;;;14.90;99.90;;;;;;5055993;28;20221;-88
2022/10/24 01:30:59;;;;;;;11.68;2.40;;;14.90;99.90;;;;;;5055915;28;20296;-89
2022/10/24 01:33:33;;;;;;;6.68;2.20;;;14.90;99.90;;;;;;5066900;28;20204;-88
2022/10/24 01:36:06;;;;;;;6.50;2.13;;;14.90;99.90;;;;;;5067935;28;20202;-89
2022/10/24 01:38:40;;;;;;;4.93;1.95;;;14.80;99.90;;;;;;5063524;28;20289;-88
2022/10/24 01:41:11;;;;;;;8.75;2.78;;;14.80;99.90;;;;;;5064059;28;20199;-88
2022/10/24 01:43:43;;;;;;;5.82;2.05;;;14.70;99.90;;;;;;5074752;28;20193;-87
2022/10/24 01:46:15;;;;;;;8.93;2.13;;;14.80;99.90;;;;;;5076458;28;20264;-86
2022/10/24 01:48:47;;;;;;;7.30;2.13;;;14.80;99.90;;;;;;5075237;28;20634;-88
2022/10/24 01:51:21;;;;;;;6.88;2.40;;;14.80;99.90;;;;;;5067986;28;20204;-88
2022/10/24 01:54:05;;;;;;;5.43;2.10;;;14.70;99.90;;;;;;5071515;28;20208;-88
2022/10/24 01:56:32;;;;;;;7.22;2.05;;;14.70;99.90;;;;;;5066595;28;20227;-90
2022/10/24 01:59:36;;;;;;;4.85;1.90;;;14.60;99.90;;;;;;5064233;28;20294;-88
2022/10/24 02:02:10;;;;;;;6.28;2.20;;;14.60;99.90;;;;;;5070297;28;20201;-88
2022/10/24 02:04:41;;;;;;;7.00;2.17;;;14.60;99.90;;;;;;5071528;28;20719;-89
2022/10/24 02:07:11;;;;;;;5.10;2.10;;;14.60;99.90;;;;;;5070532;28;20307;-89
2022/10/24 02:09:40;;;;;;;10.70;2.63;;;14.50;99.90;;;;;;5063498;28;20774;-89
2022/10/24 02:12:25;;;;;;;5.88;2.10;;;14.50;99.90;;;;;;5070397;28;20202;-89
2022/10/24 02:14:58;;;;;;;7.07;2.40;;;14.50;99.90;;;;;;5066331;28;20284;-88
2022/10/24 02:17:26;;;;;;;5.72;2.50;;;14.50;99.90;;;;;;5068679;28;20227;-88
2022/10/24 02:20:12;;;;;;;7.03;1.80;;;14.50;99.90;;;;;;5071931;28;20621;-89
2022/10/24 02:22:45;;;;;;;6.45;1.98;;;14.50;99.90;;;;;;5073750;28;20208;-88
2022/10/24 02:25:27;;;;;;;5.80;1.75;;;14.60;99.90;;;;;;5075944;28;20197;-88
2022/10/24 02:28:01;;;;;;;7.28;2.00;;;14.50;99.90;;;;;;5077710;28;20213;-89
2022/10/24 02:30:30;;;;;;;6.53;1.92;;;14.50;99.90;;;;;;5075618;28;20559;-87
2022/10/24 02:33:00;;;;;;;6.00;2.00;;;14.50;99.90;;;;;;5048817;28;20206;-88
2022/10/24 02:35:30;;;;;;;4.95;2.10;;;14.50;99.90;;;;;;5046886;28;20221;-88
2022/10/24 02:38:32;;;;;;;5.30;2.00;;;14.50;99.90;;;;;;5051033;28;20293;-88
2022/10/24 02:41:10;;;;;;;5.47;2.33;;;14.40;99.90;;;;;;5050758;28;20294;-88
2022/10/24 02:44:00;;;;;;;5.57;1.88;;;14.40;99.90;;;;;;5056771;28;20257;-88
2022/10/24 02:50:01;;;;;;;4.07;1.48;;;14.40;99.90;;;;;;5052164;28;20244;-89
2022/10/24 02:52:29;;;;;;;4.60;1.60;;;14.40;99.90;;;;;;5049888;28;20232;-87
2022/10/24 02:55:37;;;;;;;8.45;2.08;;;14.40;99.90;;;;;;5054447;28;20198;-87
2022/10/24 02:58:29;;;;;;;7.15;1.80;;;14.40;99.90;;;;;;5037353;28;20689;-87
2022/10/24 03:01:23;;;;;;;5.13;1.65;;;14.40;99.90;;;;;;5055332;28;20653;-87
2022/10/24 03:03:50;;;;;;;5.15;1.67;;;14.40;99.90;;;;;;5042453;28;20709;-88
2022/10/24 03:10:28;;;;;;;3.42;1.88;;;14.40;99.90;;;;;;5051167;28;20242;-87
2022/10/24 03:13:24;;;;;;;8.43;2.30;;;14.40;99.90;;;;;;5051715;28;20214;-89
2022/10/24 03:15:51;;;;;;;3.67;1.90;;;14.40;99.90;;;;;;5056580;28;20216;-88
2022/10/24 03:18:18;;;;;;;8.88;2.05;;;14.40;99.90;;;;;;5066066;28;20212;-88
2022/10/24 03:20:47;;;;;;;3.67;1.77;;;14.40;99.90;;;;;;5053652;28;20285;-89
2022/10/24 03:23:15;;;;;;;4.90;2.05;;;14.40;99.90;;;;;;5052566;28;20190;-88
2022/10/24 03:25:59;;;;;;;9.02;1.88;;;14.50;99.90;;;;;;5052734;28;20669;-88
2022/10/24 03:28:28;;;;;;;4.90;1.60;;;14.50;99.90;;;;;;5054086;28;20253;-89
2022/10/24 03:30:55;;;;;;;3.47;1.85;;;14.40;99.90;;;;;;5049892;28;20288;-88
2022/10/24 03:33:29;;;;;;;4.60;1.70;;;14.40;99.90;;;;;;5071367;28;20288;-88
2022/10/24 03:36:11;;;;;;;5.82;1.90;;;14.40;99.90;;;;;;5068404;28;20283;-88
2022/10/24 03:38:53;;;;;;;5.90;2.00;;;14.30;99.90;;;;;;5068782;28;20237;-89
2022/10/24 03:41:23;;;;;;;5.28;2.17;;;14.40;99.90;;;;;;5065939;28;20237;-88
2022/10/24 03:44:18;;;;;;;5.00;1.85;;;14.40;99.90;;;;;;5069605;28;20228;-89
2022/10/24 03:46:59;;;;;;;5.45;1.60;;;14.40;99.90;;;;;;5068033;28;20222;-89
2022/10/24 03:49:35;;;;;;;11.23;1.92;;;14.40;99.90;;;;;;5072145;28;20280;-89
2022/10/24 03:52:12;;;;;;;3.55;1.60;;;14.30;99.90;;;;;;5072835;28;20283;-89
2022/10/24 03:54:41;;;;;;;3.30;1.70;;;14.30;99.90;;;;;;5072304;28;20277;-88
2022/10/24 03:57:29;;;;;;;4.65;1.70;;;14.30;99.90;;;;;;5073247;28;20290;-88
2022/10/24 04:00:01;;;;;;;4.43;1.70;;;14.40;99.90;;;;;;5073507;28;20276;-88
2022/10/24 04:02:29;;;;;;;4.65;1.70;;;14.50;99.90;;;;;;5060319;28;20202;-88
2022/10/24 04:05:17;;;;;;;3.45;1.88;;;14.40;99.90;;;;;;5062046;28;20312;-88
2022/10/24 04:07:47;;;;;;;5.30;1.73;;;14.40;99.90;;;;;;5067113;28;20312;-88
2022/10/24 04:10:14;;;;;;;3.50;2.00;;;14.50;99.90;;;;;;5070939;28;20285;-88
2022/10/24 04:12:41;;;;;;;8.48;2.00;;;14.60;99.90;;;;;;5067521;28;20201;-89
2022/10/24 04:15:11;;;;;;;4.22;2.00;;;14.60;99.90;;;;;;5066740;28;20289;-87
2022/10/24 04:17:47;;;;;;;6.07;2.13;;;14.70;99.90;;;;;;5072870;28;20193;-87
2022/10/24 04:20:19;;;;;;;4.80;1.90;;;14.70;99.90;;;;;;5071013;28;20280;-88
2022/10/24 04:22:46;;;;;;;5.57;1.80;;;14.80;99.90;;;;;;5073390;28;20222;-88
2022/10/24 04:25:17;;;;;;;7.95;1.90;;;14.70;99.90;;;;;;5075133;28;20193;-87
2022/10/24 04:27:45;;;;;;;4.22;1.92;;;14.60;99.90;;;;;;5063262;28;20560;-88
2022/10/24 04:30:42;;;;;;;6.93;2.25;;;14.60;99.90;;;;;;5070637;28;20319;-88
2022/10/24 04:33:09;;;;;;;7.40;2.10;;;14.50;99.90;;;;;;5064769;28;20199;-88
2022/10/24 04:35:36;;;;;;;5.35;1.98;;;14.40;99.90;;;;;;5061959;28;20202;-88
2022/10/24 04:38:05;;;;;;;5.47;2.13;;;14.50;99.90;;;;;;5063056;28;20296;-87
2022/10/24 04:40:35;;;;;;;4.18;2.30;;;14.60;99.90;;;;;;5063884;28;20204;-88
2022/10/24 04:43:02;;;;;;;6.40;2.22;;;14.80;99.90;;;;;;5068915;28;20201;-89
2022/10/24 04:45:29;;;;;;;4.07;2.10;;;14.80;99.90;;;;;;5062390;28;20402;-89
2022/10/24 04:48:01;;;;;;;5.18;2.28;;;14.90;99.90;;;;;;5063513;28;20289;-88
2022/10/24 04:50:27;;;;;;;5.70;2.05;;;14.90;99.90;;;;;;5060320;28;20297;-89
2022/10/24 04:52:54;;;;;;;7.50;2.33;;;14.90;99.90;;;;;;5059077;28;20744;-89
2022/10/24 04:55:21;;;;;;;4.68;2.35;;;14.90;99.90;;;;;;5062462;28;20232;-89
2022/10/24 04:57:48;;;;;;;6.97;2.58;;;14.80;99.90;;;;;;5067469;28;20673;-89
2022/10/24 05:00:16;;;;;;;6.97;2.50;;;14.80;99.90;;;;;;5062924;28;20363;-89
2022/10/24 05:02:43;;;;;;;6.20;1.98;;;14.70;99.90;;;;;;5064043;28;20205;-89
2022/10/24 05:05:11;;;;;;;5.15;2.17;;;14.60;99.90;;;;;;5060846;28;20646;-89
2022/10/24 05:07:38;;;;;;;8.45;2.53;;;14.50;99.90;;;;;;5063216;28;20219;-86
2022/10/24 05:10:05;;;;;;;5.18;2.50;;;14.50;99.90;;;;;;5062876;28;20212;-88
2022/10/24 05:12:32;;;;;;;7.10;3.05;;;14.40;99.90;;;;;;5058099;28;20212;-88
2022/10/24 05:14:59;;;;;;;9.40;2.65;;;14.50;99.90;;;;;;5064467;28;20293;-87
2022/10/24 05:17:26;;;;;;;4.47;2.70;;;14.50;99.90;;;;;;5062786;28;20284;-89
2022/10/24 05:19:53;;;;;;;9.65;3.03;;;14.50;99.90;;;;;;5064096;28;20617;-89
2022/10/24 05:22:22;;;;;;;7.53;2.40;;;14.50;99.90;;;;;;5065831;28;20198;-88
2022/10/24 05:24:50;;;;;;;8.40;2.70;;;14.40;99.90;;;;;;5062634;28;20680;-88
2022/10/24 05:27:20;;;;;;;7.93;3.08;;;14.40;99.90;;;;;;5055343;28;20567;-89
2022/10/24 05:29:47;;;;;;;6.22;2.50;;;14.50;99.90;;;;;;5059824;28;20221;-88
2022/10/24 05:32:14;;;;;;;6.47;2.72;;;14.50;99.90;;;;;;5053313;28;20284;-90
2022/10/24 05:34:41;;;;;;;9.50;2.72;;;14.60;99.90;;;;;;5045663;28;20290;-87
2022/10/24 05:37:08;;;;;;;7.35;3.03;;;14.60;99.90;;;;;;5044585;28;20220;-87
2022/10/24 05:39:36;;;;;;;10.57;2.67;;;14.60;99.90;;;;;;5058081;28;20209;-87
2022/10/24 05:42:06;;;;;;;8.80;2.95;;;14.60;99.90;;;;;;5046605;28;20217;-87
2022/10/24 05:44:33;;;;;;;8.73;2.63;;;14.60;99.90;;;;;;5049096;28;20285;-86
2022/10/24 05:47:05;;;;;;;6.85;2.55;;;14.60;99.90;;;;;;5046447;28;20260;-87
2022/10/24 05:49:32;;;;;;;5.38;2.58;;;14.60;99.90;;;;;;5041229;28;20230;-88
2022/10/24 05:51:59;;;;;;;9.88;2.40;;;14.60;99.90;;;;;;5047119;28;20300;-87
2022/10/24 05:54:26;;;;;;;7.03;2.88;;;14.70;99.90;;;;;;5043564;28;20277;-88
2022/10/24 05:56:54;;;;;;;8.13;2.80;;;14.60;99.90;;;;;;5048784;28;20293;-87
2022/10/24 05:59:21;;;;;;;9.00;2.60;;;14.70;99.90;;;;;;5042245;28;20464;-88
2022/10/24 06:01:48;;;;;;;10.20;2.35;;;14.70;99.90;;;;;;5051273;28;20638;-88
2022/10/24 06:04:17;;;;;;;7.63;2.45;;;14.70;99.90;;;;;;5052116;28;20229;-88
2022/10/24 06:06:53;;;;;;;7.78;2.45;;;14.60;99.90;;;;;;5044373;28;20301;-89
2022/10/24 06:09:20;;;;;;;8.52;2.67;;;14.60;99.90;;;;;;5050926;28;20221;-88
2022/10/24 06:11:47;;;;;;;4.63;2.22;;;14.60;99.90;;;;;;5048106;28;20204;-88
2022/10/24 06:14:19;;;;;;;8.73;2.63;;;14.60;99.90;;;;;;5051322;28;20293;-89
2022/10/24 06:16:46;;;;;;;4.28;2.25;;;14.70;99.90;;;;;;5042620;28;20650;-89
2022/10/24 06:19:13;;;;;;;7.28;2.42;;;14.70;99.90;;;;;;5054164;28;20284;-88
2022/10/24 06:21:41;;;;;;;5.88;2.67;;;14.80;99.90;;;;;;5051872;28;20257;-89
2022/10/24 06:24:11;;;;;;;10.20;2.72;;;14.80;99.90;;;;;;5053349;28;20196;-88
2022/10/24 06:26:38;;;;;;;7.65;2.78;;;14.70;99.90;;;;;;5046554;28;20621;-88
2022/10/24 06:29:05;;;;;;;8.43;2.42;;;14.80;99.90;;;;;;5051813;28;20656;-88
2022/10/24 06:31:36;;;;;;;4.93;2.75;;;14.80;99.90;;;;;;5054303;28;20220;-89
2022/10/24 06:34:02;;;;;;;6.10;2.80;;;14.70;99.90;;;;;;5054054;28;20225;-89
2022/10/24 06:36:29;;;;;;;3.97;2.42;;;14.80;99.90;;;;;;5046808;28;20212;-88
2022/10/24 06:38:57;;;;;;;4.55;2.20;;;14.80;99.90;;;;;;5043190;28;20748;-88
2022/10/24 06:41:24;;;;;;;6.40;2.20;;;14.80;99.90;;;;;;5042920;28;20204;-88
2022/10/24 06:43:52;;;;;;;8.95;2.33;;;14.70;99.90;;;;;;5051294;28;20281;-88
2022/10/24 06:46:23;;;;;;;7.55;2.38;;;14.80;99.90;;;;;;5048037;28;20653;-89
2022/10/24 06:48:55;;;;;;;5.65;2.30;;;14.80;99.90;;;;;;5053889;28;20649;-88
2022/10/24 06:51:24;;;;;;;7.40;2.28;;;14.80;99.90;;;;;;5058307;28;20280;-88
2022/10/24 06:53:51;;;;;;;7.80;2.13;;;14.90;99.90;;;;;;5061755;28;20201;-88
2022/10/24 06:56:23;;;;;;;5.75;2.28;;;15.00;99.90;;;;;;5054273;28;20205;-89
2022/10/24 06:58:53;;;;;;;5.60;2.10;;;15.00;99.90;;;;;;5047134;28;20292;-89
2022/10/24 07:01:23;;;;;;;7.40;2.15;;;15.00;99.90;;;;;;5052441;28;20238;-88
2022/10/24 07:03:52;;;;;;;7.50;3.00;;;15.00;99.90;;;;;;5049339;28;20281;-87
2022/10/24 07:06:30;;;;;;;9.73;3.75;;;14.90;99.90;;;;;;5052654;28;20550;-88
2022/10/24 07:09:23;;;;;;;6.43;3.08;;;14.80;99.90;;;;;;5055460;28;20253;-87
2022/10/24 07:11:59;;;;;;;6.40;2.83;;;14.80;99.90;;;;;;5046159;28;20273;-88
2022/10/24 07:14:35;;;;;;;5.97;2.70;;;14.90;99.90;;;;;;5054026;28;20208;-88
2022/10/24 07:17:18;;;;;;;4.55;2.58;;;14.90;99.90;;;;;;5056899;28;20241;-88
2022/10/24 07:19:45;;;;;;;5.72;2.13;;;14.90;99.90;;;;;;5054570;28;20197;-88
2022/10/24 07:22:14;;;;;;;9.50;2.33;;;14.90;99.90;;;;;;5058997;28;20293;-88
2022/10/24 07:24:53;;;;;;;3.25;2.00;;;14.90;99.90;;;;;;5046329;28;20280;-88
2022/10/24 07:27:29;;;;;;;6.07;1.77;;;14.80;99.90;;;;;;5057155;28;20193;-89
2022/10/24 07:30:17;;;;;;;5.03;2.20;;;14.80;99.90;;;;;;5057280;28;20301;-88
2022/10/24 07:32:54;;;;;;;7.63;2.05;;;14.80;99.90;;;;;;5067055;28;20197;-88
2022/10/24 07:35:53;;;;;;;6.97;2.30;;;14.80;99.90;;;;;;5072697;28;20640;-87
2022/10/24 07:38:49;;;;;;;12.55;2.40;;;14.80;99.90;;;;;;5072412;28;20229;-87
2022/10/24 07:41:17;;;;;;;9.93;2.50;;;14.80;99.90;;;;;;5069295;28;20217;-89
2022/10/24 07:43:45;;;;;;;10.38;2.60;;;14.80;99.90;;;;;;5064613;28;20208;-89
2022/10/24 07:46:18;;;;;;;11.18;2.88;;;14.80;99.90;;;;;;5070742;28;20221;-88
2022/10/24 07:48:49;;;;;;;7.07;2.40;;;15.00;99.90;;;;;;5065486;28;20744;-88
2022/10/24 07:51:16;;;;;;;4.50;2.22;;;15.10;99.90;;;;;;5062478;28;20272;-88
2022/10/24 07:53:50;;;;;;;5.60;2.25;;;15.20;99.90;;;;;;5066033;28;20284;-88
2022/10/24 07:56:18;;;;;;;6.80;2.42;;;15.20;99.90;;;;;;5067172;28;20210;-88
2022/10/24 07:58:47;;;;;;;6.50;2.40;;;15.10;99.90;;;;;;5072574;28;20659;-88
2022/10/24 08:01:20;;;;;;;7.43;2.60;;;15.00;99.90;;;;;;5068817;28;20687;-89
2022/10/24 08:03:47;;;;;;;5.07;2.70;;;14.90;99.90;;;;;;5066931;28;20629;-89
2022/10/24 08:06:17;;;;;;;7.40;2.30;;;15.00;99.90;;;;;;5069759;28;20312;-88
2022/10/24 08:08:44;;;;;;;7.72;2.67;;;15.00;99.90;;;;;;5069145;28;20588;-89
2022/10/24 08:11:14;;;;;;;5.68;2.25;;;15.00;99.90;;;;;;5074300;28;20292;-88
2022/10/24 08:13:41;;;;;;;6.07;2.78;;;15.20;99.90;;;;;;5072317;28;20647;-88
2022/10/24 08:16:11;;;;;;;4.55;2.30;;;15.30;99.90;;;;;;5059620;28;20198;-87
2022/10/24 08:18:48;;;;;;;8.32;2.78;;;15.40;99.90;;;;;;5069607;28;20193;-88
2022/10/24 08:21:19;;;;;;;4.50;2.70;;;15.40;99.90;;;;;;5065422;28;20280;-88
2022/10/24 08:23:48;;;;;;;7.40;2.97;;;15.40;99.90;;;;;;5064885;28;20598;-88
2022/10/24 08:26:18;;;;;;;5.85;2.30;;;15.30;99.90;;;;;;5071879;28;20201;-88
2022/10/24 08:28:46;;;;;;;4.68;2.35;;;15.20;99.90;;;;;;5062935;28;20225;-88
2022/10/24 08:31:16;;;;;;;6.43;2.50;;;15.20;99.90;;;;;;5065441;28;20288;-88
2022/10/24 08:33:43;;;;;;;8.32;2.67;;;15.20;99.90;;;;;;5067766;28;20216;-88
2022/10/24 08:36:21;;;;;;;5.70;2.20;;;15.30;99.90;;;;;;5061783;28;20201;-88
2022/10/24 08:38:48;;;;;;;7.20;2.60;;;15.30;99.90;;;;;;5065471;28;20204;-88
2022/10/24 08:41:26;;;;;;;6.07;2.15;;;15.30;99.90;;;;;;5066536;28;20283;-87
2022/10/24 08:43:54;;;;;;;5.80;2.53;;;15.50;99.90;;;;;;5065823;28;20196;-87
2022/10/24 08:46:40;;;;;;;8.35;2.30;;;15.50;99.90;;;;;;5068332;28;20193;-89
2022/10/24 08:49:19;;;;;;;5.22;2.60;;;15.50;99.90;;;;;;5072524;28;20231;-88
2022/10/24 08:51:50;;;;;;;8.38;2.60;;;15.60;99.90;;;;;;5071062;28;20281;-88
2022/10/24 08:54:22;;;;;;;6.13;2.40;;;15.60;99.90;;;;;;5073286;28;20371;-88
2022/10/24 08:57:13;;;;;;;4.13;2.40;;;15.60;99.90;;;;;;5069891;28;20540;-88
2022/10/24 08:59:42;;;;;;;7.90;2.25;;;15.50;99.90;;;;;;5072950;28;20296;-88
2022/10/24 09:02:17;;;;;;;6.90;2.47;;;15.60;99.90;;;;;;5068832;28;20660;-87
2022/10/24 09:04:50;;;;;;;5.10;2.20;;;15.70;99.90;;;;;;5064236;28;20320;-88
2022/10/24 09:07:20;;;;;;;7.88;2.15;;;15.60;99.90;;;;;;5071707;28;20710;-88
2022/10/24 09:09:49;;;;;;;5.55;2.35;;;15.50;99.90;;;;;;5064656;28;20304;-88
2022/10/24 09:12:20;;;;;;;5.65;2.30;;;15.50;99.90;;;;;;5069054;28;20209;-88
2022/10/24 09:15:14;;;;;;;5.28;2.65;;;15.60;99.90;;;;;;5066372;28;20285;-89
2022/10/24 09:17:55;;;;;;;5.72;2.83;;;15.60;99.90;;;;;;5066896;28;20202;-88
2022/10/24 09:20:32;;;;;;;9.20;2.63;;;15.60;99.90;;;;;;5071851;28;20208;-89
2022/10/24 09:23:13;;;;;;;6.63;2.42;;;15.70;99.90;;;;;;5069840;28;20201;-88
2022/10/24 09:25:45;;;;;;;6.05;2.50;;;15.90;99.90;;;;;;5063192;28;20276;-88
2022/10/24 09:28:14;;;;;;;4.93;2.40;;;15.90;99.90;;;;;;5070792;28;20784;-89
2022/10/24 09:30:47;;;;;;;6.82;2.80;;;15.90;99.90;;;;;;5070288;28;20607;-87
2022/10/24 09:33:28;;;;;;;8.05;2.53;;;16.00;99.90;;;;;;5071177;28;20239;-88
2022/10/24 09:36:10;;;;;;;7.07;2.90;;;16.00;99.90;;;;;;5065698;28;20203;-87
2022/10/24 09:38:39;;;;;;;8.50;3.03;;;16.10;99.90;;;;;;5077093;28;20231;-90
2022/10/24 09:41:10;;;;;;;5.93;2.80;;;16.00;99.90;;;;;;5071703;28;20211;-88
2022/10/24 09:43:54;;;;;;;9.70;3.30;;;16.00;99.90;;;;;;5065715;28;20198;-87
2022/10/24 09:46:36;;;;;;;5.97;2.88;;;15.80;99.90;;;;;;5072463;28;20656;-88
2022/10/24 09:49:21;;;;;;;5.53;2.58;;;15.70;99.90;;;;;;5066995;28;20213;-87
2022/10/24 09:52:04;;;;;;;8.20;3.20;;;15.80;99.90;;;;;;5070279;28;20649;-87
2022/10/24 09:54:34;;;;;;;7.32;2.90;;;15.70;99.90;;;;;;5073588;28;20283;-88
2022/10/24 09:57:06;;;;;;;6.32;3.10;;;15.70;99.90;;;;;;5070751;28;20220;-88
2022/10/24 09:59:44;;;;;;;5.22;2.88;;;15.80;99.90;;;;;;5070579;28;20212;-87
2022/10/24 10:02:33;;;;;;;6.45;2.72;;;15.80;99.90;;;;;;5074519;28;20201;-88
2022/10/24 10:05:17;;;;;;;10.15;2.97;;;15.80;99.90;;;;;;5070250;28;20284;-90
2022/10/24 10:07:47;;;;;;;5.68;2.72;;;15.90;99.90;;;;;;5067927;28;20288;-88
2022/10/24 10:10:33;;;;;;;5.50;2.83;;;15.80;99.90;;;;;;5068516;28;20320;-89
2022/10/24 10:13:05;;;;;;;6.97;2.92;;;15.80;99.90;;;;;;5078354;28;20244;-87
2022/10/24 10:15:37;;;;;;;6.88;2.85;;;15.80;99.90;;;;;;5075803;28;20273;-88
2022/10/24 10:18:21;;;;;;;5.70;2.88;;;15.70;99.90;;;;;;5067627;28;20210;-87
2022/10/24 10:21:00;;;;;;;7.78;2.55;;;15.70;99.90;;;;;;5076385;28;20204;-88
2022/10/24 10:23:31;;;;;;;9.13;2.97;;;15.60;99.90;;;;;;5068177;28;20666;-89
2022/10/24 10:26:22;;;;;;;6.30;2.55;;;15.50;99.90;;;;;;5063607;28;20208;-89
2022/10/24 10:29:24;;;;;;;11.07;2.95;;;15.50;99.90;;;;;;5074113;28;20236;-88
2022/10/24 10:31:59;;;;;;;9.88;3.00;;;15.40;99.90;;;;;;5074159;28;20633;-88
2022/10/24 10:34:45;;;;;;;10.27;3.20;;;15.30;99.90;;;;;;5075198;28;20207;-88
2022/10/24 10:37:26;;;;;;;7.50;3.35;;;15.30;99.90;;;;;;5066058;28;20735;-87
2022/10/24 10:43:36;;;;;;;8.68;2.95;;;15.20;99.90;;;;;;5070223;28;20221;-88
2022/10/24 10:46:16;;;;;;;8.45;3.45;;;15.20;99.90;;;;;;5068705;28;20289;-88
2022/10/24 10:49:02;;;;;;;7.72;2.95;;;15.20;99.90;;;;;;5061608;28;20284;-88
2022/10/24 10:51:40;;;;;;;10.02;3.20;;;15.20;99.90;;;;;;5072766;28;20207;-88
2022/10/24 10:54:21;;;;;;;5.18;2.60;;;15.30;99.90;;;;;;5075209;28;20285;-87
2022/10/24 10:56:53;;;;;;;9.55;2.97;;;15.30;99.90;;;;;;5070276;28;20540;-88
2022/10/24 10:59:44;;;;;;;9.50;3.00;;;15.30;99.90;;;;;;5074643;28;20310;-88
2022/10/24 11:02:53;;;;;;;4.70;2.78;;;15.20;99.90;;;;;;5075066;28;20281;-88
2022/10/24 11:05:48;;;;;;;5.93;2.55;;;15.20;99.90;;;;;;5070905;28;20217;-89
2022/10/24 11:08:41;;;;;;;6.88;2.55;;;15.10;99.90;;;;;;5066179;28;20293;-88
2022/10/24 11:11:16;;;;;;;5.13;2.35;;;15.00;99.90;;;;;;5074909;28;20622;-89
2022/10/24 11:13:50;;;;;;;6.18;2.50;;;15.10;99.90;;;;;;5066032;28;20279;-89
2022/10/24 11:20:07;;;;;;;9.98;2.80;;;15.00;99.90;;;;;;5064819;28;20709;-89
2022/10/24 11:22:56;;;;;;;6.82;2.35;;;15.10;99.90;;;;;;5065938;28;20197;-89
2022/10/24 11:25:50;;;;;;;5.72;2.30;;;15.00;99.90;;;;;;5064409;28;20186;-88
2022/10/24 11:28:23;;;;;;;9.00;2.65;;;14.90;99.90;;;;;;5066770;28;20232;-89
2022/10/24 11:30:55;;;;;;;7.30;2.38;;;14.90;99.90;;;;;;5075315;28;20217;-89
2022/10/24 11:33:42;;;;;;;5.10;2.40;;;14.90;99.90;;;;;;5074669;28;20229;-87
2022/10/24 11:36:17;;;;;;;4.55;2.33;;;14.90;99.90;;;;;;5067693;28;20281;-87
2022/10/24 11:38:52;;;;;;;6.30;2.45;;;14.80;99.90;;;;;;5068940;28;20621;-89
2022/10/24 11:41:30;;;;;;;5.40;2.80;;;14.90;99.90;;;;;;5066364;28;20204;-89
2022/10/24 11:44:06;;;;;;;7.10;2.53;;;14.80;99.90;;;;;;5058167;28;20201;-88
2022/10/24 11:46:38;;;;;;;6.45;2.45;;;14.90;99.90;;;;;;5065549;28;20669;-88
2022/10/24 11:49:15;;;;;;;6.78;2.45;;;14.80;99.90;;;;;;5070960;28;20243;-88
2022/10/24 11:51:46;;;;;;;5.88;2.47;;;14.70;99.90;;;;;;5066178;28;20217;-87
2022/10/24 11:54:18;;;;;;;3.85;2.30;;;14.80;99.90;;;;;;5061869;28;20210;-86
2022/10/24 11:56:50;;;;;;;5.65;2.00;;;14.60;99.90;;;;;;5063700;28;20284;-88
2022/10/24 11:59:22;;;;;;;4.68;2.10;;;14.60;99.90;;;;;;5067707;28;20292;-88
2022/10/24 12:02:31;;;;;;;8.80;2.33;;;14.60;99.90;;;;;;5057607;28;20244;-89
2022/10/24 12:05:12;;;;;;;6.97;2.35;;;14.60;99.90;;;;;;4961687;28;20291;-88
2022/10/24 12:08:03;;;;;;;4.72;2.15;;;14.60;99.90;;;;;;4969820;28;20205;-88
2022/10/24 12:11:06;;;;;;;4.63;2.20;;;14.50;99.90;;;;;;4965809;28;20235;-88
2022/10/24 12:13:54;;;;;;;5.35;2.33;;;14.50;99.90;;;;;;4965301;28;20211;-88
2022/10/24 12:16:33;;;;;;;5.72;1.90;;;14.50;99.90;;;;;;4969924;28;20223;-88
2022/10/24 12:19:04;;;;;;;10.30;2.10;;;14.40;99.90;;;;;;4969786;28;20291;-89
2022/10/24 12:21:39;;;;;;;8.57;2.38;;;14.30;99.90;;;;;;4964227;28;20296;-89
2022/10/24 12:24:22;;;;;;;5.93;2.17;;;14.30;99.90;;;;;;4964771;28;20208;-88
2022/10/24 12:26:57;;;;;;;3.42;1.92;;;14.30;99.90;;;;;;4969835;28;20211;-90
2022/10/24 12:29:27;;;;;;;5.30;2.20;;;14.30;99.90;;;;;;4968319;28;20662;-89
2022/10/24 12:31:54;;;;;;;5.00;2.50;;;14.40;99.90;;;;;;4966241;28;20229;-88
2022/10/24 12:34:40;;;;;;;5.00;2.33;;;14.40;99.90;;;;;;4967913;28;20204;-90
2022/10/24 12:37:38;;;;;;;7.15;2.90;;;14.30;99.90;;;;;;4965593;28;20212;-89
2022/10/24 12:40:42;;;;;;;6.70;2.30;;;14.20;99.90;;;;;;4907335;29;20213;-88
2022/10/24 12:43:29;;;;;;;7.47;2.40;;;14.20;99.90;;;;;;5061344;28;20283;-88
2022/10/24 12:45:59;;;;;;;5.03;2.20;;;14.30;99.90;;;;;;5067555;28;20201;-89
2022/10/24 12:48:42;;;;;;;5.30;2.15;;;14.30;99.90;;;;;;5062343;28;20201;-90
2022/10/24 12:51:27;;;;;;;4.53;2.15;;;14.30;99.90;;;;;;5064857;28;20245;-90
2022/10/24 12:54:16;;;;;;;6.43;2.40;;;14.30;99.90;;;;;;5063703;28;21937;-89
2022/10/24 12:57:23;;;;;;;5.55;1.92;;;14.30;99.90;;;;;;5062541;28;20225;-89
2022/10/24 13:00:01;;;;;;;5.43;2.00;;;14.20;99.90;;;;;;5067809;28;20300;-90
2022/10/24 13:02:53;;;;;;;5.00;2.20;;;14.20;99.90;;;;;;5067490;28;20223;-89
2022/10/24 13:05:40;;;;;;;4.22;1.92;;;14.30;99.90;;;;;;5067514;28;20231;-90
2022/10/24 13:08:21;;;;;;;4.95;2.10;;;14.40;99.90;;;;;;5065039;28;20200;-89
2022/10/24 13:11:07;;;;;;;4.50;2.10;;;14.40;99.90;;;;;;5061342;28;20217;-89
2022/10/24 13:14:07;;;;;;;3.72;1.98;;;14.40;99.90;;;;;;5067840;28;20201;-89
2022/10/24 13:17:00;;;;;;;6.32;2.10;;;14.40;99.90;;;;;;5062177;28;20197;-89
2022/10/24 13:19:36;;;;;;;4.95;2.13;;;14.30;99.90;;;;;;5057396;28;20194;-89
2022/10/24 13:22:26;;;;;;;4.28;2.28;;;14.30;99.90;;;;;;5066692;28;20546;-89
2022/10/24 13:24:55;;;;;;;5.07;2.13;;;14.30;99.90;;;;;;5066785;28;20655;-88
2022/10/24 13:27:30;;;;;;;6.10;2.30;;;14.20;99.90;;;;;;5070607;28;20194;-88
2022/10/24 13:30:33;;;;;;;5.40;2.45;;;14.30;99.90;;;;;;5069855;28;20619;-89
2022/10/24 13:33:35;;;;;;;6.32;2.50;;;14.40;99.90;;;;;;4985206;28;20216;-88
2022/10/24 13:36:16;;;;;;;5.38;2.50;;;14.40;99.90;;;;;;4927885;29;20257;-88
2022/10/24 13:38:49;;;;;;;5.47;1.90;;;14.40;99.90;;;;;;4923112;29;20704;-88
2022/10/24 13:41:25;;;;;;;7.10;2.50;;;14.30;99.90;;;;;;4927569;29;20568;-88
2022/10/24 13:43:56;;;;;;;9.85;2.47;;;14.20;99.90;;;;;;4926154;29;20657;-91
2022/10/24 13:46:30;;;;;;;6.47;2.40;;;14.20;99.90;;;;;;4922770;29;20205;-89
2022/10/24 13:49:00;;;;;;;4.75;2.05;;;14.30;99.90;;;;;;4925321;29;20202;-88
2022/10/24 13:51:36;;;;;;;6.50;2.50;;;14.30;99.90;;;;;;4922977;29;20244;-87
2022/10/24 13:54:11;;;;;;;2.47;1.85;;;14.30;99.90;;;;;;4934487;29;20233;-87
2022/10/24 13:56:43;;;;;;;3.92;2.40;;;14.30;99.90;;;;;;4932499;29;20197;-89
2022/10/24 13:59:31;;;;;;;10.82;6.18;;;14.30;99.90;;;;;;4934850;29;20636;-88